Fort Recovery, Ohio
Current Conditions -  °F | °C
As of 3:31 PM on Monday 26 Jan 2015 (Local Time) from KAXV Reporting Station
Clear Clear  
Wind Chill: 13°   Ceiling: Unl
Heat Index: 19°   Visibility: 10mi
Dew Point: 14°   Wind: 5mph
Humidity: 80%   Direction: 340°NNW
Pressure: 29.89"   Gusts: NA
Location:  40.41°N, 84.78°W
Report Text: KAXV 262031Z AUTO 34004KT 10SM CLR M07/M10 A2989 RMK AO2
Loading
Personal Weather Stations






























Interactive Weather Map New forecast layout! Learn more

10-Day Weather Forecast

Advertisements
Track Severe Weather on mobile